Kansas City International Airport
KMCI : now visible

Airfield :











YOU CAN JOIN US ON...

 
LOGIN :

Register | Disclaimer

   EN    FR    IT 

 









Legend :    VFR   Marginal VFR   IFR   Intensive IFR   Very Intensive IFR
Visi :
Ceiling :
>= 8 km
>= 3000ft
5 to 8 km
1000 to 3000 ft
1500m to 5 km
500 to 1000 ft
800 to 1500m
200 to 500 ft
< 800m
< 200 ft
Symbols :   Thunderstorms  Fog  Heavy snow  Heavy precipitations  Wind > 20 kt






- Airport Elevation : 1026 ft
- IATA code : MCI


KMCI - Kansas City International

CURRENT METAR :
  • 250353Z 01006KT 10SM CLR 16/10 A2987 RMK AO2 SLP106 T01560100

EXPIRED METARs :
  • 250253Z 35006KT 10SM CLR 17/10 A2984 RMK AO2 SLP098 T01670100 53029
  • 250153Z 36006KT 10SM CLR 18/12 A2981 RMK AO2 SLP088 T01780122
  • 250053Z 32006KT 10SM CLR 21/10 A2978 RMK AO2 SLP075 T02110100
  • 242353Z 33012G19KT 10SM CLR 23/08 A2975 RMK AO2 SLP067 T02280083 10244 20217 53005

TAF KMCI
Valid from the 25 at 00:00 until the 26 at 00:00 UTC


242325Z 2500/2524 33007KT P6SM FEW250
FM250800 08010KT P6SM FEW250
KZKC FIR / North America



MET'MAP, your aeronautical weather chart ! - Copyright ORBIFLY December 2007 - Disclaimer

ORBIFLY MET'MAP TEAM :

Programming & Development : Alexandra Zaïnal
Original concept : Baudouin d'Aumeries
Technical & hardware support : Manuel Goepfert
Assistance : Marc-Olivier Méhu




SOURCES & CREDITS :

   NOAA       Earth
Advisory